Airfield :
LOGIN :

Register | Disclaimer

   EN    FR    IT 

 










Legend :    VFR   Marginal VFR   IFR   Intensive IFR   Very Intensive IFR
Visi :
Ceiling :
>= 8 km
>= 3000ft
5 to 8 km
1000 to 3000 ft
1500m to 5 km
500 to 1000 ft
800 to 1500m
200 to 500 ft
< 800m
< 200 ft
Symbols :   Thunderstorms  Fog  Heavy snow  Heavy precipitations  Wind > 20 kt
SIGMETs :     Misc.  Thunderstorms  Icing  Turbulence  Mountain Waves  Volcanic Ashes






- Airport Elevation : 302 ft
- IATA code : CGN


EDDK - Cologne Bonn

CURRENT METAR :
  • 130650Z 12012KT 090V150 9999 RA SCT009 OVC016 02/01 Q0975 BECMG NSW

EXPIRED METARs :
  • 130620Z 13012KT 9999 -RA SCT017 BKN020 03/00 Q0975 NOSIG
  • 130550Z 13013KT 9999 FEW017 BKN020 03/M00 Q0976 NOSIG
  • 130520Z 13013KT 090V160 9999 FEW017 BKN022 03/M00 Q0976 NOSIG
  • 130450Z 13016KT 9999 FEW017 BKN022 03/M00 Q0977 NOSIG
  • 130420Z 14015KT 9999 -RA BKN021 03/M00 Q0978 NOSIG

TAF TAF EDDK
Valid from the 13 at 06:00 until the 14 at 12:00 UTC


130500Z 1306/1412 14012KT 9999 BKN020
PROB40
TEMPO 1306/1320 RA
PROB30
TEMPO 1306/1323 BKN012
BECMG 1310/1314 25012KT
TEMPO 1314/1319 25015G25KT
BECMG 1402/1405 18010KT
TEMPO 1403/1407 RA
BECMG 1406/1409 25012KT



MET'MAP, your aeronautical weather chart ! - Copyright ORBIFLY December 2007 - Disclaimer

ORBIFLY MET'MAP TEAM :

Programming & Development : Alexandra Zaïnal
Concept & original design : Baudouin d'Aumeries
Assistance for programming : Marc-Olivier Méhu
Technical & hardware support : Manuel Goepfert

Contact : metmap@orbifly.com




SOURCES & CREDITS :

   NOAA